Kezdőlap
METAR-TAF:

METAR-TAF

Repülőterek :

Kuusamo, Finnország

földrajzi szélesség: 65-58N, földrajzi hosszúság: 029-11E, magasság: 262 m

Jelenlegi meteorológiai megfigyelések

A jelentés 23 perccel ezelõtt készült, 02:20 UTC
Keleti szél 5 kt
Hőmérséklet 3°C
Páratartalom 81%
Légköri nyomás 1025 hPa
Látótávolság 10 km, vagy több
felhőtlen 1500 m magasságban, és nincs gomolyfelhõ

METAR: EFKS 250220Z AUTO 09005KT CAVOK 03/00 Q1025

Idő: 05:43 (02:43 UTC)

Előrejelzés

A jelentés 18 órával és 13 perccel ezelõtt készült, 08:30 UTC
Az előrejelzés 24-én 09 óra UTC és 24-én 13 óra UTC között érvényes
Különbözõ irányokból fújó szél 2 kt
Látótávolság 10 km, vagy több
felhőtlen 1500 m magasságban, és nincs gomolyfelhõ

TAF: EFKS 240830Z 2409/2413 VRB02KT CAVOK

Meteorológiai megfigyelések és előrejelzések több, mint 4000 repülőtéren (METAR és TAF jelentéseket).

A térképen piros és sárga pontok jelzik az elérhető meteorológiai állomásokat.

Mozgassa az egeret a pont fölött, hogy megjelenjen az állomás neve.

Azután kattintson az időjárási megfigyelések és előrejelzések megtekintéséhez.

A térkép megváltoztatása: kattintson a fekete keresztel jelölt zöld gombra ráközelítéshez, a vonallal jelölt zöld gombra távolításhoz, vagy a zöld nyilakra a szomszédos térképek eléréséhez.


METAR-TAF: